createdAt,value
2022-12-06T00:00:38.136Z,9.747274
2022-12-06T00:01:38.143Z,9.747300
2022-12-06T00:02:39.176Z,9.747387
2022-12-06T00:03:38.159Z,9.747290
2022-12-06T00:04:38.087Z,9.747311
2022-12-06T00:05:41.845Z,9.747417
2022-12-06T00:06:40.071Z,9.747338
2022-12-06T00:07:38.095Z,9.747426
2022-12-06T00:08:38.053Z,9.747362
2022-12-06T00:09:38.045Z,9.747354
2022-12-06T00:10:38.068Z,9.747371
2022-12-06T00:11:38.026Z,9.747401
2022-12-06T00:12:38.030Z,9.747343
2022-12-06T00:13:38.013Z,9.747378
2022-12-06T00:14:38.006Z,9.747318
2022-12-06T00:15:38.030Z,9.747405
2022-12-06T00:16:38.032Z,9.747408
2022-12-06T00:17:42.882Z,9.747391
2022-12-06T00:18:39.979Z,9.747326
2022-12-06T00:19:37.979Z,9.747350
2022-12-06T00:20:37.997Z,9.747411
2022-12-06T00:21:37.954Z,9.747334
2022-12-06T00:22:37.951Z,9.747302
2022-12-06T00:23:37.945Z,9.747373
2022-12-06T00:24:37.941Z,9.747312
2022-12-06T00:25:37.927Z,9.747411
2022-12-06T00:26:37.954Z,9.747323
2022-12-06T00:27:37.909Z,9.747419
2022-12-06T00:28:37.913Z,9.747396
2022-12-06T00:29:37.899Z,9.747364
2022-12-06T00:30:37.922Z,9.747412
2022-12-06T00:31:37.977Z,9.747372
2022-12-06T00:32:37.879Z,9.747364
2022-12-06T00:33:37.872Z,9.747396
2022-12-06T00:34:37.861Z,9.747382
2022-12-06T00:35:37.860Z,9.747375
2022-12-06T00:36:37.873Z,9.747350
2022-12-06T00:37:37.837Z,9.747380
2022-12-06T00:38:37.833Z,9.747249
2022-12-06T00:39:37.821Z,9.747361
2022-12-06T00:40:37.819Z,9.747384
2022-12-06T00:41:37.833Z,9.747431
2022-12-06T00:43:12.157Z,9.747334
2022-12-06T00:43:37.794Z,9.747398
2022-12-06T00:44:37.783Z,9.747397
2022-12-06T00:45:37.864Z,9.747441
2022-12-06T00:46:37.796Z,9.747561
2022-12-06T00:47:37.762Z,9.747394
2022-12-06T00:48:37.758Z,9.747336
2022-12-06T00:49:37.752Z,9.747323
2022-12-06T00:50:37.743Z,9.747326
2022-12-06T00:51:37.755Z,9.747519
2022-12-06T00:52:37.728Z,9.747409
2022-12-06T00:53:37.718Z,9.747456
2022-12-06T00:54:37.719Z,9.747415
2022-12-06T00:55:37.700Z,9.747348
2022-12-06T00:56:37.722Z,9.747543
2022-12-06T00:57:37.681Z,9.747387
2022-12-06T00:58:37.678Z,9.747434
2022-12-06T00:59:37.671Z,9.747496
2022-12-06T01:00:37.664Z,9.747451
2022-12-06T01:01:37.727Z,9.747407
2022-12-06T01:02:37.638Z,9.747276
2022-12-06T01:03:38.692Z,9.747247
2022-12-06T01:04:37.629Z,9.747292
2022-12-06T01:05:37.631Z,9.747372
2022-12-06T01:06:37.647Z,9.747345
2022-12-06T01:07:37.642Z,9.747328
2022-12-06T01:08:37.606Z,9.747369
2022-12-06T01:09:37.601Z,9.747476
2022-12-06T01:10:37.583Z,9.747334
2022-12-06T01:11:37.608Z,9.747347
2022-12-06T01:12:37.573Z,9.747302
2022-12-06T01:13:37.567Z,9.747313
2022-12-06T01:14:37.555Z,9.747279
2022-12-06T01:15:37.554Z,9.747353
2022-12-06T01:16:37.661Z,9.747314
2022-12-06T01:17:37.565Z,9.747465
2022-12-06T01:18:37.529Z,9.747335
2022-12-06T01:19:37.521Z,9.747277
2022-12-06T01:20:37.513Z,9.747319
2022-12-06T01:21:37.541Z,9.747288
2022-12-06T01:22:37.489Z,9.747393
2022-12-06T01:23:37.492Z,9.747318
2022-12-06T01:24:37.478Z,9.747367
2022-12-06T01:25:37.473Z,9.747308
2022-12-06T01:26:37.492Z,9.747243
2022-12-06T01:27:37.461Z,9.747244
2022-12-06T01:28:37.454Z,9.747197
2022-12-06T01:29:37.452Z,9.747385
2022-12-06T01:30:37.552Z,9.747368
2022-12-06T01:31:39.065Z,9.747515
2022-12-06T01:32:38.429Z,9.747451
2022-12-06T01:33:37.417Z,9.747554
2022-12-06T01:34:37.409Z,9.747436
2022-12-06T01:35:37.402Z,9.747423
2022-12-06T01:36:37.420Z,9.747457
2022-12-06T01:37:37.383Z,9.747492
2022-12-06T01:38:37.379Z,9.747357
2022-12-06T01:39:37.371Z,9.747490
2022-12-06T01:40:37.361Z,9.747364
2022-12-06T01:41:37.384Z,9.747214
2022-12-06T01:42:37.350Z,9.747348
2022-12-06T01:43:37.339Z,9.747285
2022-12-06T01:44:37.350Z,9.747302
2022-12-06T01:45:37.326Z,9.747342
2022-12-06T01:46:37.427Z,9.747334
2022-12-06T01:47:37.310Z,9.747493
2022-12-06T01:48:37.303Z,9.747444
2022-12-06T01:49:37.292Z,9.747421
2022-12-06T01:50:37.290Z,9.747332
2022-12-06T01:51:37.315Z,9.747221
2022-12-06T01:52:37.275Z,9.747251
2022-12-06T01:53:37.283Z,9.747083
2022-12-06T01:54:37.265Z,9.747293
2022-12-06T01:55:37.255Z,9.747396
2022-12-06T01:56:37.266Z,9.747380
2022-12-06T01:57:37.238Z,9.747495
2022-12-06T01:58:37.248Z,9.747467
2022-12-06T01:59:37.221Z,9.747308
2022-12-06T02:00:37.217Z,9.747113
2022-12-06T02:01:37.319Z,9.747191
2022-12-06T02:02:37.237Z,9.747271
2022-12-06T02:03:37.202Z,9.747253
2022-12-06T02:04:37.191Z,9.747324
2022-12-06T02:05:40.714Z,9.747309
2022-12-06T02:06:38.195Z,9.747300
2022-12-06T02:07:37.211Z,9.747788
2022-12-06T02:08:37.157Z,9.747492
2022-12-06T02:09:37.150Z,9.747447
2022-12-06T02:10:37.136Z,9.747371
2022-12-06T02:11:37.155Z,9.747415
2022-12-06T02:12:38.126Z,9.747401
2022-12-06T02:13:37.145Z,9.747377
2022-12-06T02:14:37.112Z,9.747395
2022-12-06T02:15:37.106Z,9.747308
2022-12-06T02:16:37.185Z,9.747418
2022-12-06T02:17:37.092Z,9.747407
2022-12-06T02:18:37.084Z,9.747476
2022-12-06T02:19:37.103Z,9.747450
2022-12-06T02:20:37.085Z,9.747190
2022-12-06T02:21:37.074Z,9.747210
2022-12-06T02:22:37.076Z,9.747256
2022-12-06T02:23:37.057Z,9.747397
2022-12-06T02:24:37.067Z,9.747416
2022-12-06T02:25:40.756Z,9.747422
2022-12-06T02:26:39.025Z,9.747394
2022-12-06T02:27:37.015Z,9.747427
2022-12-06T02:28:37.014Z,9.747447
2022-12-06T02:29:37.026Z,9.747275
2022-12-06T02:30:37.096Z,9.747281
2022-12-06T02:31:36.986Z,9.747367
2022-12-06T02:32:36.986Z,9.747355
2022-12-06T02:33:36.974Z,9.747383
2022-12-06T02:34:37.010Z,9.747316
2022-12-06T02:35:36.959Z,9.747522
2022-12-06T02:36:36.952Z,9.747574
2022-12-06T02:37:36.941Z,9.747511
2022-12-06T02:38:36.939Z,9.747401
2022-12-06T02:39:36.967Z,9.747459
2022-12-06T02:40:36.921Z,9.747581
2022-12-06T02:41:36.909Z,9.747432
2022-12-06T02:42:36.906Z,9.747406
2022-12-06T02:43:36.900Z,9.747405
2022-12-06T02:44:36.913Z,9.747340
2022-12-06T02:45:36.890Z,9.747438
2022-12-06T02:46:36.908Z,9.747417
2022-12-06T02:47:36.866Z,9.747540
2022-12-06T02:48:36.855Z,9.747398
2022-12-06T02:49:36.876Z,9.747276
2022-12-06T02:50:36.845Z,9.747455
2022-12-06T02:51:36.846Z,9.747631
2022-12-06T02:52:36.830Z,9.747459
2022-12-06T02:53:36.823Z,9.747435
2022-12-06T02:54:36.842Z,9.747455
2022-12-06T02:55:36.813Z,9.747296
2022-12-06T02:56:36.806Z,9.747236
2022-12-06T02:57:36.792Z,9.747396
2022-12-06T02:58:36.791Z,9.747365
2022-12-06T02:59:36.806Z,9.747466
2022-12-06T03:00:36.773Z,9.747524
2022-12-06T03:01:36.793Z,9.747510
2022-12-06T03:02:36.808Z,9.747470
2022-12-06T03:03:36.749Z,9.747391
2022-12-06T03:04:36.773Z,9.747379
2022-12-06T03:05:36.739Z,9.747358
2022-12-06T03:06:36.723Z,9.747355
2022-12-06T03:07:36.790Z,9.747297
2022-12-06T03:08:36.713Z,9.747404
2022-12-06T03:09:36.726Z,9.747545
2022-12-06T03:10:36.701Z,9.747571
2022-12-06T03:11:36.705Z,9.747595
2022-12-06T03:12:36.688Z,9.747459
2022-12-06T03:13:36.671Z,9.747440
2022-12-06T03:14:36.692Z,9.747470
2022-12-06T03:15:36.685Z,9.747455
2022-12-06T03:16:36.661Z,9.747385
2022-12-06T03:17:36.638Z,9.747491
2022-12-06T03:18:36.631Z,9.747464
2022-12-06T03:19:36.650Z,9.747484
2022-12-06T03:20:36.619Z,9.747156
2022-12-06T03:21:36.609Z,9.747163
2022-12-06T03:22:39.808Z,9.747107
2022-12-06T03:23:37.596Z,9.747013
2022-12-06T03:24:36.624Z,9.747260
2022-12-06T03:25:36.582Z,9.747046
2022-12-06T03:26:36.579Z,9.746923
2022-12-06T03:27:36.569Z,9.746902
2022-12-06T03:28:36.576Z,9.747293
2022-12-06T03:29:36.555Z,9.747094
2022-12-06T03:30:36.599Z,9.747404
2022-12-06T03:31:36.609Z,9.747405
2022-12-06T03:32:36.540Z,9.747189
2022-12-06T03:33:36.524Z,9.746982
2022-12-06T03:34:36.575Z,9.747062
2022-12-06T03:35:36.562Z,9.747107
2022-12-06T03:36:36.505Z,9.747233
2022-12-06T03:37:36.491Z,9.747365
2022-12-06T03:38:36.489Z,9.747255
2022-12-06T03:39:36.487Z,9.747165
2022-12-06T03:40:36.501Z,9.747270
2022-12-06T03:41:36.466Z,9.747441
2022-12-06T03:42:36.460Z,9.747324
2022-12-06T03:43:36.446Z,9.747826
2022-12-06T03:44:36.439Z,9.747377
2022-12-06T03:45:36.488Z,9.747261
2022-12-06T03:46:36.476Z,9.747340
2022-12-06T03:47:36.420Z,9.747164
2022-12-06T03:48:36.406Z,9.747027
2022-12-06T03:49:36.400Z,9.747044
2022-12-06T03:50:36.424Z,9.746886
2022-12-06T03:51:36.397Z,9.746840
2022-12-06T03:52:36.391Z,9.746990
2022-12-06T03:53:36.386Z,9.747555
2022-12-06T03:54:36.368Z,9.746899
2022-12-06T03:55:36.380Z,9.746965
2022-12-06T03:56:36.348Z,9.746908
2022-12-06T03:57:36.337Z,9.746897
2022-12-06T03:58:36.331Z,9.747128
2022-12-06T03:59:36.324Z,9.747203
2022-12-06T04:00:36.339Z,9.747106
2022-12-06T04:01:36.376Z,9.746863
2022-12-06T04:02:36.318Z,9.746625
2022-12-06T04:03:36.350Z,9.746668
2022-12-06T04:04:36.293Z,9.746710
2022-12-06T04:05:36.300Z,9.747190
2022-12-06T04:06:36.273Z,9.747246
2022-12-06T04:07:36.299Z,9.747194
2022-12-06T04:08:36.256Z,9.747124
2022-12-06T04:09:36.245Z,9.747118
2022-12-06T04:10:36.267Z,9.747158
2022-12-06T04:11:36.232Z,9.747174
2022-12-06T04:12:36.229Z,9.747271
2022-12-06T04:13:36.210Z,9.747311
2022-12-06T04:14:37.203Z,9.747365
2022-12-06T04:15:36.395Z,9.747309
2022-12-06T04:16:36.242Z,9.747274
2022-12-06T04:17:36.190Z,9.747310
2022-12-06T04:18:36.176Z,9.747327
2022-12-06T04:19:36.203Z,9.747248
2022-12-06T04:20:36.191Z,9.747326
2022-12-06T04:21:36.151Z,9.747305
2022-12-06T04:22:36.277Z,9.747465
2022-12-06T04:23:36.135Z,9.747412
2022-12-06T04:24:36.124Z,9.747320
2022-12-06T04:25:37.165Z,9.747330
2022-12-06T04:26:36.128Z,9.747396
2022-12-06T04:27:36.115Z,9.747405
2022-12-06T04:28:36.107Z,9.747389
2022-12-06T04:29:36.127Z,9.747281
2022-12-06T04:30:36.121Z,9.747263
2022-12-06T04:31:36.174Z,9.747338
2022-12-06T04:32:36.077Z,9.747299
2022-12-06T04:33:36.065Z,9.747365
2022-12-06T04:34:36.058Z,9.747385
2022-12-06T04:35:37.079Z,9.747396
2022-12-06T04:36:36.084Z,9.747151
2022-12-06T04:37:36.037Z,9.747167
2022-12-06T04:38:36.043Z,9.747306
2022-12-06T04:39:36.027Z,9.747256
2022-12-06T04:40:36.013Z,9.747336
2022-12-06T04:41:36.031Z,9.747314
2022-12-06T04:42:36.003Z,9.747300
2022-12-06T04:43:36.040Z,9.747348
2022-12-06T04:44:35.987Z,9.747370
2022-12-06T04:45:35.978Z,9.747368
2022-12-06T04:46:36.091Z,9.747364
2022-12-06T04:47:35.967Z,9.747239
2022-12-06T04:48:35.954Z,9.747244
2022-12-06T04:49:35.943Z,9.747313
2022-12-06T04:50:35.954Z,9.747223
2022-12-06T04:51:35.965Z,9.747183
2022-12-06T04:52:36.442Z,9.747248
2022-12-06T04:53:36.926Z,9.747189
2022-12-06T04:54:35.913Z,9.747320
2022-12-06T04:55:35.919Z,9.747337
2022-12-06T04:56:35.930Z,9.747405
2022-12-06T04:57:35.892Z,9.747377
2022-12-06T04:58:35.877Z,9.747297
2022-12-06T04:59:35.869Z,9.747347
2022-12-06T05:00:35.903Z,9.747242
2022-12-06T05:01:35.880Z,9.747306
2022-12-06T05:02:35.849Z,9.747272
2022-12-06T05:03:40.864Z,9.747262
2022-12-06T05:04:37.836Z,9.747247
2022-12-06T05:05:35.825Z,9.747223
2022-12-06T05:06:35.857Z,9.747280
2022-12-06T05:07:35.901Z,9.747318
2022-12-06T05:08:35.802Z,9.747299
2022-12-06T05:09:35.794Z,9.747445
2022-12-06T05:10:35.792Z,9.747309
2022-12-06T05:11:35.807Z,9.747480
2022-12-06T05:12:35.765Z,9.747412
2022-12-06T05:13:35.765Z,9.747476
2022-12-06T05:14:35.756Z,9.747319
2022-12-06T05:15:35.748Z,9.747421
2022-12-06T05:16:35.800Z,9.747558
2022-12-06T05:17:35.733Z,9.747509
2022-12-06T05:18:35.724Z,9.747446
2022-12-06T05:19:35.717Z,9.747440
2022-12-06T05:20:35.708Z,9.747394
2022-12-06T05:21:35.724Z,9.747316
2022-12-06T05:22:36.698Z,9.747404
2022-12-06T05:23:35.690Z,9.747302
2022-12-06T05:24:35.702Z,9.747227
2022-12-06T05:25:35.671Z,9.747515
2022-12-06T05:26:35.699Z,9.747404
2022-12-06T05:27:36.310Z,9.747319
2022-12-06T05:28:36.656Z,9.747355
2022-12-06T05:29:35.652Z,9.747419
2022-12-06T05:30:35.636Z,9.747477
2022-12-06T05:31:35.735Z,9.747350
2022-12-06T05:32:35.622Z,9.747454
2022-12-06T05:33:35.612Z,9.747395
2022-12-06T05:34:35.607Z,9.747360
2022-12-06T05:35:35.603Z,9.747390
2022-12-06T05:36:35.615Z,9.747422
2022-12-06T05:37:36.591Z,9.747329
2022-12-06T05:38:35.579Z,9.747357
2022-12-06T05:39:35.578Z,9.747352
2022-12-06T05:40:35.571Z,9.747352
2022-12-06T05:41:35.600Z,9.747376
2022-12-06T05:42:35.552Z,9.747414
2022-12-06T05:43:35.541Z,9.747388
2022-12-06T05:44:35.525Z,9.747379
2022-12-06T05:45:35.585Z,9.747352
2022-12-06T05:46:35.562Z,9.747315
2022-12-06T05:47:35.542Z,9.747438
2022-12-06T05:48:35.523Z,9.747345
2022-12-06T05:49:35.504Z,9.747349
2022-12-06T05:50:35.496Z,9.747376
2022-12-06T05:51:35.485Z,9.747000
2022-12-06T05:52:35.500Z,9.747135
2022-12-06T05:53:35.483Z,9.747238
2022-12-06T05:54:35.457Z,9.747334
2022-12-06T05:55:35.449Z,9.747439
2022-12-06T05:56:35.443Z,9.747454
2022-12-06T05:57:35.461Z,9.747332
2022-12-06T05:58:35.430Z,9.747539
2022-12-06T05:59:35.420Z,9.747497
2022-12-06T06:00:35.404Z,9.747565
2022-12-06T06:01:35.414Z,9.747572
2022-12-06T06:02:35.522Z,9.747350
2022-12-06T06:03:35.468Z,9.747524
2022-12-06T06:04:35.385Z,9.747526
2022-12-06T06:05:35.391Z,9.747534
2022-12-06T06:06:35.366Z,9.747355
2022-12-06T06:07:35.444Z,9.747313
2022-12-06T06:08:35.354Z,9.747201
2022-12-06T06:09:35.347Z,9.747509
2022-12-06T06:10:35.336Z,9.747456
2022-12-06T06:11:35.340Z,9.747320
2022-12-06T06:12:35.347Z,9.747326
2022-12-06T06:13:35.319Z,9.747333
2022-12-06T06:14:35.309Z,9.747305
2022-12-06T06:15:35.308Z,9.747402
2022-12-06T06:16:35.375Z,9.747392
2022-12-06T06:17:35.323Z,9.747406
2022-12-06T06:18:35.284Z,9.747355
2022-12-06T06:19:35.268Z,9.747368
2022-12-06T06:20:35.275Z,9.747378
2022-12-06T06:21:35.256Z,9.747417
2022-12-06T06:22:35.323Z,9.747396
2022-12-06T06:23:35.242Z,9.747118
2022-12-06T06:24:35.242Z,9.747188
2022-12-06T06:25:35.228Z,9.747275
2022-12-06T06:26:35.219Z,9.747207
2022-12-06T06:27:35.245Z,9.747304
2022-12-06T06:28:35.200Z,9.747304
2022-12-06T06:29:35.195Z,9.747304
2022-12-06T06:30:35.185Z,9.747304
2022-12-06T06:31:35.252Z,9.747626
2022-12-06T06:32:35.199Z,9.747249
2022-12-06T06:33:35.166Z,9.747363
2022-12-06T06:34:35.161Z,9.747264
2022-12-06T06:35:35.148Z,9.747086
2022-12-06T06:36:35.271Z,9.747355
2022-12-06T06:37:35.159Z,9.747448
2022-12-06T06:38:35.128Z,9.747380
2022-12-06T06:39:35.123Z,9.747274
2022-12-06T06:40:35.113Z,9.747107
2022-12-06T06:41:35.109Z,9.747324
2022-12-06T06:42:35.115Z,9.747271
2022-12-06T06:44:09.246Z,9.747289
2022-12-06T06:44:35.085Z,9.747299
2022-12-06T06:45:35.106Z,9.747334
2022-12-06T06:46:35.133Z,9.747357
2022-12-06T06:47:35.115Z,9.747360
2022-12-06T06:48:35.057Z,9.747328
2022-12-06T06:49:35.052Z,9.747170
2022-12-06T06:50:35.061Z,9.747187
2022-12-06T06:51:35.035Z,9.747372
2022-12-06T06:52:35.065Z,9.747297
2022-12-06T06:53:35.037Z,9.747329
2022-12-06T06:54:35.032Z,9.747287
2022-12-06T06:55:35.017Z,9.747478
2022-12-06T06:56:35.027Z,9.747540
2022-12-06T06:57:35.100Z,9.747441
2022-12-06T06:58:34.994Z,9.747406
2022-12-06T06:59:35.042Z,9.747370
2022-12-06T07:00:34.995Z,9.747354
2022-12-06T07:01:35.130Z,9.747486
2022-12-06T07:02:35.050Z,9.747408
2022-12-06T07:03:34.965Z,9.747194
2022-12-06T07:04:34.951Z,9.747306
2022-12-06T07:05:34.948Z,9.747340
2022-12-06T07:06:34.942Z,9.747392
2022-12-06T07:07:35.009Z,9.747378
2022-12-06T07:08:34.945Z,9.747404
2022-12-06T07:09:34.924Z,9.747476
2022-12-06T07:10:34.913Z,9.747190
2022-12-06T07:11:34.912Z,9.747253
2022-12-06T07:12:34.885Z,9.747398
2022-12-06T07:13:34.924Z,9.747690
2022-12-06T07:14:34.904Z,9.747588
2022-12-06T07:15:34.875Z,9.747331
2022-12-06T07:16:34.912Z,9.747466
2022-12-06T07:17:34.900Z,9.747420
2022-12-06T07:18:34.870Z,9.747431
2022-12-06T07:19:34.854Z,9.747378
2022-12-06T07:20:34.835Z,9.747462
2022-12-06T07:21:34.824Z,9.747465
2022-12-06T07:22:34.818Z,9.747395
2022-12-06T07:23:34.827Z,9.747375
2022-12-06T07:24:41.252Z,9.747282
2022-12-06T07:25:36.861Z,9.747355
2022-12-06T07:26:34.780Z,9.747342
2022-12-06T07:27:34.787Z,9.747464
2022-12-06T07:28:34.804Z,9.747443
2022-12-06T07:29:34.774Z,9.747551
2022-12-06T07:30:34.924Z,9.747516
2022-12-06T07:31:34.823Z,9.747446
2022-12-06T07:32:34.731Z,9.747516
2022-12-06T07:33:34.755Z,9.747413
2022-12-06T07:34:34.732Z,9.747534
2022-12-06T07:36:10.176Z,9.747429
2022-12-06T07:36:36.707Z,9.747446
2022-12-06T07:37:34.724Z,9.747436
2022-12-06T07:38:34.726Z,9.747512
2022-12-06T07:39:34.684Z,9.747482
2022-12-06T07:41:03.001Z,9.747436
2022-12-06T07:41:36.705Z,9.747510
2022-12-06T07:42:34.666Z,9.747528
2022-12-06T07:43:34.656Z,9.747446
2022-12-06T07:44:34.698Z,9.747512
2022-12-06T07:45:34.646Z,9.747485
2022-12-06T07:46:34.702Z,9.747485
2022-12-06T07:47:34.630Z,9.747598
2022-12-06T07:48:34.636Z,9.747556
2022-12-06T07:49:34.664Z,9.747484
2022-12-06T07:50:34.617Z,9.747437
2022-12-06T07:51:34.616Z,9.747417
2022-12-06T07:52:34.592Z,9.747447
2022-12-06T07:53:34.585Z,9.747430
2022-12-06T07:54:34.630Z,9.747378
2022-12-06T07:55:34.574Z,9.747428
2022-12-06T07:56:34.573Z,9.747448
2022-12-06T07:57:38.566Z,9.747526
2022-12-06T07:58:36.545Z,9.747453
2022-12-06T07:59:34.579Z,9.747293
2022-12-06T08:00:34.535Z,9.747348
2022-12-06T08:01:34.591Z,9.747366
2022-12-06T08:02:34.528Z,9.747294
2022-12-06T08:03:34.510Z,9.747271
2022-12-06T08:04:34.571Z,9.747360
2022-12-06T08:05:34.497Z,9.747407
2022-12-06T08:06:34.476Z,9.747305
2022-12-06T08:07:34.557Z,9.747419
2022-12-06T08:08:34.575Z,9.747486
2022-12-06T08:09:34.492Z,9.747428
2022-12-06T08:10:34.458Z,9.747410
2022-12-06T08:11:34.445Z,9.747414
2022-12-06T08:12:34.445Z,9.747429
2022-12-06T08:13:34.480Z,9.747325
2022-12-06T08:14:34.450Z,9.747355
2022-12-06T08:15:34.466Z,9.747476
2022-12-06T08:16:34.465Z,9.747456
2022-12-06T08:17:34.410Z,9.747400
2022-12-06T08:18:34.391Z,9.747458
2022-12-06T08:19:34.427Z,9.747447
2022-12-06T08:20:34.382Z,9.747396
2022-12-06T08:21:34.369Z,9.747411
2022-12-06T08:22:34.370Z,9.747419
2022-12-06T08:23:34.886Z,9.747364
2022-12-06T08:24:35.373Z,9.747408
2022-12-06T08:25:34.355Z,9.747372
2022-12-06T08:26:34.337Z,9.747382
2022-12-06T08:27:34.361Z,9.747457
2022-12-06T08:28:34.314Z,9.747467
2022-12-06T08:29:34.345Z,9.747513
2022-12-06T08:30:34.404Z,9.747457
2022-12-06T08:31:34.342Z,9.747464
2022-12-06T08:32:34.299Z,9.747405
2022-12-06T08:33:34.287Z,9.747512
2022-12-06T08:34:34.309Z,9.747438
2022-12-06T08:35:34.290Z,9.747399
2022-12-06T08:36:34.265Z,9.747497
2022-12-06T08:37:34.259Z,9.747424
2022-12-06T08:38:34.247Z,9.747397
2022-12-06T08:39:34.264Z,9.747344
2022-12-06T08:40:34.263Z,9.747335
2022-12-06T08:41:34.287Z,9.747366
2022-12-06T08:42:34.229Z,9.747390
2022-12-06T08:43:34.205Z,9.747411
2022-12-06T08:44:34.229Z,9.747386
2022-12-06T08:45:34.193Z,9.747522
2022-12-06T08:46:34.232Z,9.747530
2022-12-06T08:47:34.238Z,9.747511
2022-12-06T08:48:38.436Z,9.747435
2022-12-06T08:49:35.282Z,9.747458
2022-12-06T08:50:34.154Z,9.747494
2022-12-06T08:51:34.158Z,9.747479
2022-12-06T08:52:34.143Z,9.747329
2022-12-06T08:53:34.133Z,9.747453
2022-12-06T08:54:34.154Z,9.747297
2022-12-06T08:55:34.127Z,9.747333
2022-12-06T08:56:34.103Z,9.747237
2022-12-06T08:57:34.108Z,9.747200
2022-12-06T08:58:34.108Z,9.747299
2022-12-06T08:59:34.113Z,9.747304
2022-12-06T09:00:35.269Z,9.747388
2022-12-06T09:01:37.781Z,9.747372
2022-12-06T09:02:35.068Z,9.747449
2022-12-06T09:03:34.062Z,9.747401
2022-12-06T09:04:34.122Z,9.747364
2022-12-06T09:05:34.055Z,9.747280
2022-12-06T09:06:34.074Z,9.747295
2022-12-06T09:07:34.088Z,9.747277
2022-12-06T09:08:34.074Z,9.747373
2022-12-06T09:09:34.034Z,9.747277
2022-12-06T09:10:34.026Z,9.747306
2022-12-06T09:11:34.003Z,9.747334
2022-12-06T09:12:34.004Z,9.747386
2022-12-06T09:13:33.982Z,9.747359
2022-12-06T09:14:34.020Z,9.747297
2022-12-06T09:15:35.054Z,9.747233
2022-12-06T09:16:34.039Z,9.747283
2022-12-06T09:17:33.965Z,9.747174
2022-12-06T09:18:33.943Z,9.747260
2022-12-06T09:19:33.983Z,9.747250
2022-12-06T09:20:33.935Z,9.747389
2022-12-06T09:21:33.945Z,9.747340
2022-12-06T09:22:33.974Z,9.747399
2022-12-06T09:23:33.931Z,9.747255
2022-12-06T09:24:33.964Z,9.747326
2022-12-06T09:25:33.886Z,9.747448
2022-12-06T09:26:33.894Z,9.747474
2022-12-06T09:27:33.882Z,9.747474
2022-12-06T09:28:33.858Z,9.747349
2022-12-06T09:29:38.962Z,9.747303
2022-12-06T09:30:35.843Z,9.747453
2022-12-06T09:31:33.869Z,9.747529
2022-12-06T09:32:33.828Z,9.747466
2022-12-06T09:33:33.823Z,9.747437
2022-12-06T09:34:33.809Z,9.747326
2022-12-06T09:35:33.831Z,9.747395
2022-12-06T09:36:33.800Z,9.747378
2022-12-06T09:37:33.788Z,9.747394
2022-12-06T09:38:33.780Z,9.747323
2022-12-06T09:39:33.775Z,9.747414
2022-12-06T09:40:37.243Z,9.747279
2022-12-06T09:41:34.762Z,9.747310
2022-12-06T09:42:33.752Z,9.747358
2022-12-06T09:43:33.750Z,9.747335
2022-12-06T09:44:33.750Z,9.747375
2022-12-06T09:45:33.762Z,9.747408
2022-12-06T09:46:33.767Z,9.747334
2022-12-06T09:47:33.714Z,9.747315
2022-12-06T09:48:33.713Z,9.747251
2022-12-06T09:49:33.707Z,9.747350
2022-12-06T09:50:33.725Z,9.747375
2022-12-06T09:51:33.684Z,9.747443
2022-12-06T09:52:33.683Z,9.747411
2022-12-06T09:53:33.673Z,9.747307
2022-12-06T09:54:33.663Z,9.747428
2022-12-06T09:55:33.698Z,9.747341
2022-12-06T09:56:33.646Z,9.747305
2022-12-06T09:57:33.640Z,9.747377
2022-12-06T09:58:33.633Z,9.747456
2022-12-06T09:59:33.640Z,9.747459
2022-12-06T10:00:33.647Z,9.747368
2022-12-06T10:01:33.672Z,9.747357
2022-12-06T10:02:33.655Z,9.747406
2022-12-06T10:03:33.600Z,9.747270
2022-12-06T10:04:33.598Z,9.747288
2022-12-06T10:05:33.613Z,9.747412
2022-12-06T10:06:33.586Z,9.747329
2022-12-06T10:07:33.617Z,9.747424
2022-12-06T10:08:33.652Z,9.747431
2022-12-06T10:09:34.044Z,9.747326
2022-12-06T10:10:33.573Z,9.747363
2022-12-06T10:11:33.538Z,9.747417
2022-12-06T10:12:33.532Z,9.747441
2022-12-06T10:13:33.532Z,9.747341
2022-12-06T10:14:33.518Z,9.747373
2022-12-06T10:15:33.538Z,9.747336
2022-12-06T10:16:33.600Z,9.747315
2022-12-06T10:17:33.492Z,9.747314
2022-12-06T10:18:33.482Z,9.747308
2022-12-06T10:19:33.477Z,9.747253
2022-12-06T10:20:33.504Z,9.747240
2022-12-06T10:21:33.461Z,9.747362
2022-12-06T10:22:33.458Z,9.747289
2022-12-06T10:23:33.460Z,9.747352
2022-12-06T10:24:33.426Z,9.747414
2022-12-06T10:25:34.461Z,9.747485
2022-12-06T10:26:33.416Z,9.747434
2022-12-06T10:27:33.420Z,9.747412
2022-12-06T10:28:33.412Z,9.747343
2022-12-06T10:29:33.404Z,9.746951
2022-12-06T10:30:33.402Z,9.747143
2022-12-06T10:31:33.429Z,9.747295
2022-12-06T10:32:33.382Z,9.747262
2022-12-06T10:33:33.388Z,9.747184
2022-12-06T10:34:33.363Z,9.747185
2022-12-06T10:35:33.356Z,9.747217
2022-12-06T10:36:33.436Z,9.747369
2022-12-06T10:37:33.353Z,9.747265
2022-12-06T10:38:33.335Z,9.747209
2022-12-06T10:39:33.324Z,9.747046
2022-12-06T10:40:33.317Z,9.747134
2022-12-06T10:41:33.328Z,9.747140
2022-12-06T10:42:33.297Z,9.747277
2022-12-06T10:43:33.287Z,9.747348
2022-12-06T10:44:33.297Z,9.747303
2022-12-06T10:45:33.281Z,9.747253
2022-12-06T10:46:33.331Z,9.747103
2022-12-06T10:47:33.262Z,9.747363
2022-12-06T10:48:33.262Z,9.747341
2022-12-06T10:49:33.240Z,9.747431
2022-12-06T10:50:33.241Z,9.747466
2022-12-06T10:51:33.258Z,9.747374
2022-12-06T10:52:33.221Z,9.747363
2022-12-06T10:53:33.218Z,9.747421
2022-12-06T10:54:33.226Z,9.747437
2022-12-06T10:55:33.222Z,9.747351
2022-12-06T10:56:33.231Z,9.747316
2022-12-06T10:57:33.185Z,9.747367
2022-12-06T10:58:33.185Z,9.747355
2022-12-06T10:59:33.170Z,9.747319
2022-12-06T11:00:33.196Z,9.747210
2022-12-06T11:01:34.327Z,9.747248
2022-12-06T11:02:34.198Z,9.747359
2022-12-06T11:03:33.151Z,9.747350
2022-12-06T11:04:33.141Z,9.747268
2022-12-06T11:05:33.132Z,9.747328
2022-12-06T11:06:33.148Z,9.747431
2022-12-06T11:07:33.185Z,9.747424
2022-12-06T11:08:33.107Z,9.747384
2022-12-06T11:09:33.107Z,9.747340
2022-12-06T11:10:33.091Z,9.747313
2022-12-06T11:11:33.117Z,9.747396
2022-12-06T11:12:33.078Z,9.747370
2022-12-06T11:13:33.087Z,9.747338
2022-12-06T11:14:33.059Z,9.747540
2022-12-06T11:15:33.060Z,9.747736
2022-12-06T11:16:33.193Z,9.747571
2022-12-06T11:17:33.037Z,9.747417
2022-12-06T11:18:33.038Z,9.747549
2022-12-06T11:19:33.027Z,9.747624
2022-12-06T11:20:33.025Z,9.747302
2022-12-06T11:21:33.037Z,9.747306
2022-12-06T11:22:33.008Z,9.747348
2022-12-06T11:23:32.989Z,9.747180
2022-12-06T11:24:33.984Z,9.747311
2022-12-06T11:25:32.990Z,9.746898
2022-12-06T11:26:32.979Z,9.746933
2022-12-06T11:27:32.989Z,9.746936
2022-12-06T11:28:32.953Z,9.747099
2022-12-06T11:29:32.962Z,9.747434
2022-12-06T11:30:33.052Z,9.747087
2022-12-06T11:31:33.020Z,9.746973
2022-12-06T11:32:32.960Z,9.746968
2022-12-06T11:33:32.925Z,9.746922
2022-12-06T11:34:32.924Z,9.747185
2022-12-06T11:35:32.914Z,9.747539
2022-12-06T11:36:32.897Z,9.747303
2022-12-06T11:37:32.924Z,9.747248
2022-12-06T11:38:32.886Z,9.747697
2022-12-06T11:39:32.884Z,9.747467
2022-12-06T11:40:32.870Z,9.747291
2022-12-06T11:41:32.876Z,9.747446
2022-12-06T11:42:33.255Z,9.747427
2022-12-06T11:43:32.855Z,9.747424
2022-12-06T11:44:32.886Z,9.747102